Time;durP1;ratioP1;P1;durP2;ratioP2;P2;SDS_P1;SDS_P2;PMS_P1;PMS_P2;Temp;Humidity;BMP_temperature;BMP_pressure;BME280_temperature;BME280_humidity;BME280_pressure;Samples;Min_cycle;Max_cycle;Signal;HPM_P1;HPM_P2
2021/04/05 00:01:05;;;;;;;18.12;9.00;;;;;;;3.20;63.32;100022.03;1724265;81;27288;-75
2021/04/05 00:03:32;;;;;;;17.00;9.00;;;;;;;3.16;63.45;100018.03;1719374;81;25884;-74
2021/04/05 00:06:00;;;;;;;18.12;9.23;;;;;;;3.14;63.43;100010.23;1675109;82;25923;-75
2021/04/05 00:08:27;;;;;;;18.45;8.65;;;;;;;3.17;63.51;100008.25;1719526;81;25852;-75
2021/04/05 00:10:56;;;;;;;18.30;8.23;;;;;;;3.18;63.61;100005.48;1712777;81;25824;-75
2021/04/05 00:13:28;;;;;;;17.32;9.05;;;;;;;3.14;63.47;99994.35;1715591;81;26886;-75
2021/04/05 00:15:56;;;;;;;16.10;8.53;;;;;;;3.13;63.57;99991.87;1742579;80;26413;-74
2021/04/05 00:18:25;;;;;;;13.75;7.62;;;;;;;3.09;63.67;99996.65;1730525;80;25909;-74
2021/04/05 00:21:06;;;;;;;16.45;8.88;;;;;;;3.07;63.70;99989.36;1720834;80;26326;-75
2021/04/05 00:23:34;;;;;;;16.42;9.00;;;;;;;3.06;63.65;99990.33;1761823;80;25755;-74
2021/04/05 00:26:03;;;;;;;21.42;9.90;;;;;;;3.06;63.70;99979.75;1767778;80;27520;-74
2021/04/05 00:28:31;;;;;;;19.65;10.38;;;;;;;3.08;63.75;99976.94;1733542;80;26443;-75
2021/04/05 00:30:58;;;;;;;16.10;8.23;;;;;;;3.08;63.77;99969.00;1721069;80;26496;-75
2021/04/05 00:33:26;;;;;;;15.90;8.60;;;;;;;3.06;63.75;99966.52;1728057;81;26490;-74
2021/04/05 00:35:53;;;;;;;14.23;8.38;;;;;;;3.06;64.01;99960.39;1760412;80;25794;-74
2021/04/05 00:38:21;;;;;;;16.82;9.33;;;;;;;3.03;63.82;99958.06;1725652;81;27324;-77
2021/04/05 00:40:54;;;;;;;19.27;9.30;;;;;;;3.04;63.83;99953.09;1720917;81;26391;-74
2021/04/05 00:43:23;;;;;;;16.35;8.85;;;;;;;3.06;63.91;99948.00;1752609;81;25822;-75
2021/04/05 00:45:51;;;;;;;16.67;8.78;;;;;;;3.05;63.88;99941.06;1647307;83;25822;-74
2021/04/05 00:48:18;;;;;;;17.98;9.13;;;;;;;3.06;63.93;99935.25;1758651;80;25877;-74
2021/04/05 00:51:03;;;;;;;19.17;9.53;;;;;;;3.05;63.98;99930.96;1687872;81;27413;-74
2021/04/05 00:53:39;;;;;;;16.48;8.40;;;;;;;3.05;64.04;99930.96;1750223;80;26097;-75
2021/04/05 00:56:08;;;;;;;15.55;9.03;;;;;;;3.04;63.96;99930.61;1735682;82;25811;-73
2021/04/05 00:58:36;;;;;;;13.95;8.33;;;;;;;3.02;64.02;99916.70;1733401;81;25816;-75
2021/04/05 01:01:12;;;;;;;15.30;8.75;;;;;;;2.99;64.02;99917.04;1678248;81;26193;-75
2021/04/05 01:03:44;;;;;;;16.32;8.55;;;;;;;2.97;64.15;99907.91;1730519;81;27549;-75
2021/04/05 01:06:16;;;;;;;16.65;8.40;;;;;;;2.96;64.23;99895.69;1668020;83;25805;-76
2021/04/05 01:08:43;;;;;;;16.25;8.65;;;;;;;2.96;64.21;99887.75;1730181;81;25920;-76
2021/04/05 01:11:14;;;;;;;16.35;9.23;;;;;;;2.95;64.24;99883.43;1719275;81;25820;-74
2021/04/05 01:13:44;;;;;;;15.95;8.83;;;;;;;2.94;64.26;99879.14;1670713;83;26122;-74
2021/04/05 01:16:12;;;;;;;17.45;8.75;;;;;;;2.93;64.24;99877.47;1730048;81;30269;-75
2021/04/05 01:18:41;;;;;;;15.28;8.33;;;;;;;2.91;64.47;99872.83;1727853;81;26002;-74
2021/04/05 01:21:10;;;;;;;19.30;10.90;;;;;;;2.89;64.41;99868.67;1683812;82;26462;-75
2021/04/05 01:23:38;;;;;;;17.90;9.30;;;;;;;2.88;64.46;99864.39;1702211;81;26420;-74
2021/04/05 01:26:06;;;;;;;20.50;9.30;;;;;;;2.89;64.49;99860.73;1667162;83;26175;-73
2021/04/05 01:28:34;;;;;;;14.98;9.35;;;;;;;2.88;64.41;99846.70;1700817;81;28622;-75
2021/04/05 01:31:04;;;;;;;17.10;9.60;;;;;;;2.88;64.51;99835.29;1648504;83;25792;-73
2021/04/05 01:33:36;;;;;;;17.35;9.58;;;;;;;2.88;64.65;99841.91;1735334;80;25523;-75
2021/04/05 01:36:08;;;;;;;16.75;8.75;;;;;;;2.90;64.53;99843.90;1731351;81;25945;-74
2021/04/05 01:38:41;;;;;;;18.50;9.45;;;;;;;2.91;64.56;99836.28;1739589;80;25816;-75
2021/04/05 01:41:13;;;;;;;18.80;8.93;;;;;;;2.88;64.56;99840.09;1753942;81;27523;-75
2021/04/05 01:43:41;;;;;;;18.55;10.32;;;;;;;2.85;64.54;99838.23;1749231;81;25752;-75
2021/04/05 01:46:11;;;;;;;16.70;9.45;;;;;;;2.82;64.56;99831.44;1745748;81;26000;-73
2021/04/05 01:48:40;;;;;;;15.35;8.78;;;;;;;2.83;64.60;99831.78;1725456;81;26748;-74
2021/04/05 01:51:10;;;;;;;14.53;7.83;;;;;;;2.75;64.80;99817.69;1701391;81;25847;-75
2021/04/05 01:53:39;;;;;;;14.70;8.63;;;;;;;2.78;64.73;99819.52;1701189;81;27600;-73
2021/04/05 01:56:09;;;;;;;14.63;9.00;;;;;;;2.77;64.73;99816.55;1746248;81;26429;-75
2021/04/05 01:58:41;;;;;;;18.87;10.10;;;;;;;2.76;64.71;99813.55;1725542;81;25769;-74
2021/04/05 02:01:12;;;;;;;17.55;10.15;;;;;;;2.76;64.71;99809.59;1707868;81;26497;-74
2021/04/05 02:03:40;;;;;;;16.93;9.28;;;;;;;2.78;64.76;99808.13;1733522;81;26166;-74
2021/04/05 02:06:18;;;;;;;19.52;10.43;;;;;;;2.77;64.79;99795.39;1750153;81;27525;-75
2021/04/05 02:08:47;;;;;;;18.42;9.75;;;;;;;2.78;64.77;99793.59;1723973;81;25851;-75
2021/04/05 02:11:19;;;;;;;14.35;8.58;;;;;;;2.75;64.84;99788.11;1751888;81;25824;-75
2021/04/05 02:13:49;;;;;;;18.77;10.55;;;;;;;2.75;64.79;99784.14;1726922;81;26263;-74
2021/04/05 02:16:19;;;;;;;;;;;;;;;2.73;64.83;99784.80;1729021;81;25818;-74
2021/04/05 02:18:54;;;;;;;15.55;8.63;;;;;;;2.73;64.89;99783.96;1750689;81;28399;-75
2021/04/05 02:21:24;;;;;;;12.88;8.15;;;;;;;2.70;64.92;99773.69;1732588;81;26264;-74
2021/04/05 02:24:02;;;;;;;22.80;9.78;;;;;;;2.70;65.04;99759.14;1750118;81;25781;-77
2021/04/05 02:26:33;;;;;;;18.07;9.60;;;;;;;2.67;65.00;99765.60;1728546;81;26613;-74
2021/04/05 02:29:02;;;;;;;22.52;10.45;;;;;;;2.68;65.05;99763.77;1748559;81;25829;-74
2021/04/05 02:31:31;;;;;;;16.77;9.88;;;;;;;2.66;65.23;99750.70;1709075;81;27727;-74
2021/04/05 02:34:00;;;;;;;20.60;9.43;;;;;;;2.63;65.20;99756.30;1704557;82;25923;-74
2021/04/05 02:36:31;;;;;;;16.95;8.93;;;;;;;2.62;65.25;99747.20;1699736;81;26443;-73
2021/04/05 02:39:04;;;;;;;15.75;9.70;;;;;;;2.59;65.41;99739.61;1744890;81;27637;-75
2021/04/05 02:41:35;;;;;;;17.95;9.75;;;;;;;2.57;65.42;99735.78;1707736;81;26186;-75
2021/04/05 02:44:03;;;;;;;19.40;9.50;;;;;;;2.57;65.59;99729.66;1716967;81;27505;-74
2021/04/05 02:46:35;;;;;;;20.80;10.80;;;;;;;2.55;65.62;99727.17;1725603;81;25996;-73
2021/04/05 02:49:10;;;;;;;17.73;9.73;;;;;;;2.55;65.64;99716.61;1749829;81;25760;-75
2021/04/05 02:51:43;;;;;;;15.48;9.20;;;;;;;2.54;65.87;99714.97;1714550;81;25961;-74
2021/04/05 02:54:12;;;;;;;18.82;10.43;;;;;;;2.46;65.86;99712.77;1746435;81;25983;-75
2021/04/05 02:56:40;;;;;;;18.52;10.90;;;;;;;2.43;65.96;99709.10;1725555;81;27339;-74
2021/04/05 02:59:08;;;;;;;19.50;9.70;;;;;;;2.40;66.03;99693.06;1723608;81;26079;-74
2021/04/05 03:01:39;;;;;;;20.20;10.80;;;;;;;2.40;66.10;99692.23;1724385;81;25900;-75
2021/04/05 03:04:07;;;;;;;;;;;;;;;2.40;66.18;99686.94;1731205;80;26470;-73
2021/04/05 03:06:34;;;;;;;21.30;11.08;;;;;;;2.36;66.49;99678.51;1740839;81;25383;-75
2021/04/05 03:09:06;;;;;;;22.93;10.63;;;;;;;2.31;66.40;99672.37;1734848;80;27542;-74
2021/04/05 03:11:37;;;;;;;17.98;10.05;;;;;;;2.31;66.53;99673.69;1732709;80;26559;-74
2021/04/05 03:14:08;;;;;;;21.02;10.63;;;;;;;2.30;66.60;99672.53;1755199;80;25825;-74
2021/04/05 03:16:39;;;;;;;16.40;9.68;;;;;;;2.28;66.55;99669.22;1730533;80;25794;-73
2021/04/05 03:19:08;;;;;;;18.17;10.03;;;;;;;2.29;66.59;99665.58;1733843;80;26093;-74
2021/04/05 03:21:35;;;;;;;21.20;10.70;;;;;;;2.27;66.64;99661.78;1731170;80;27599;-74
2021/04/05 03:24:05;;;;;;;18.73;10.35;;;;;;;2.27;66.74;99650.37;1759901;80;25808;-74
2021/04/05 03:26:32;;;;;;;20.00;10.40;;;;;;;2.27;66.75;99643.77;1721278;81;25943;-75
2021/04/05 03:28:59;;;;;;;22.13;10.60;;;;;;;2.26;66.85;99632.88;1703923;82;25861;-73
2021/04/05 03:31:31;;;;;;;21.52;9.98;;;;;;;2.25;66.85;99633.85;1702226;81;25814;-74
2021/04/05 03:34:13;;;;;;;21.73;11.20;;;;;;;2.24;66.96;99632.21;1749973;81;27541;-74
2021/04/05 03:36:57;;;;;;;21.65;11.53;;;;;;;2.21;67.01;99628.06;1725629;81;26388;-74
2021/04/05 03:39:25;;;;;;;19.82;9.75;;;;;;;2.21;67.01;99617.98;1729061;81;25718;-74
2021/04/05 03:42:09;;;;;;;18.95;10.70;;;;;;;2.20;67.15;99605.78;1740890;80;26422;-75
2021/04/05 03:45:05;;;;;;;17.60;10.50;;;;;;;2.18;67.12;99590.06;1721109;80;25873;-73
2021/04/05 03:48:25;;;;;;;18.05;10.08;;;;;;;2.18;67.21;99592.70;1698679;82;27428;-74
2021/04/05 03:51:12;;;;;;;20.00;11.53;;;;;;;2.17;67.35;99581.81;1749674;81;25767;-75
2021/04/05 03:54:03;;;;;;;20.95;9.70;;;;;;;2.13;67.39;99575.20;1724139;81;25874;-75
2021/04/05 03:56:43;;;;;;;19.20;12.03;;;;;;;2.14;67.49;99572.04;1723826;81;26513;-74
2021/04/05 03:59:33;;;;;;;19.23;10.53;;;;;;;2.12;67.50;99562.96;1692792;82;25824;-75
2021/04/05 04:02:06;;;;;;;23.95;10.85;;;;;;;2.05;67.48;99548.72;1724125;81;27550;-74
2021/04/05 04:07:23;;;;;;;20.17;10.50;;;;;;;2.18;67.68;99549.11;1791088;79;25749;-74
2021/04/05 04:09:45;;;;;;;20.43;11.53;;;;;;;2.14;67.63;99550.91;1759711;80;26050;-75
2021/04/05 04:12:16;;;;;;;21.10;10.25;;;;;;;2.15;67.69;99546.81;1675628;83;27098;-74
2021/04/05 04:14:45;;;;;;;23.47;11.08;;;;;;;2.16;67.84;99541.84;1670045;85;26446;-75
2021/04/05 04:17:13;;;;;;;18.27;11.40;;;;;;;2.17;67.78;99532.95;1626062;85;25822;-76
2021/04/05 04:19:41;;;;;;;19.90;11.25;;;;;;;2.18;67.88;99521.37;1651502;85;25808;-75
2021/04/05 04:22:09;;;;;;;25.05;11.25;;;;;;;2.18;67.76;99502.88;1646127;85;25882;-75
2021/04/05 04:24:37;;;;;;;22.58;11.25;;;;;;;2.20;67.92;99487.70;1668578;85;28500;-74
2021/04/05 04:27:06;;;;;;;21.10;10.32;;;;;;;2.22;68.01;99485.72;1624577;83;25787;-73
2021/04/05 04:29:34;;;;;;;23.98;12.60;;;;;;;2.23;68.09;99476.83;1630961;85;25872;-76
2021/04/05 04:32:02;;;;;;;21.35;10.63;;;;;;;2.23;68.03;99475.50;1648971;85;25931;-74
2021/04/05 04:34:29;;;;;;;20.77;11.65;;;;;;;2.26;68.00;99472.55;1668062;85;25811;-75
2021/04/05 04:37:03;;;;;;;23.38;11.28;;;;;;;2.28;67.96;99471.89;1604462;85;28449;-74
2021/04/05 04:39:31;;;;;;;25.80;12.13;;;;;;;2.30;68.03;99464.63;1648174;85;25817;-74
2021/04/05 04:41:58;;;;;;;25.15;12.03;;;;;;;2.32;67.90;99460.50;1647596;85;25842;-73
2021/04/05 04:44:25;;;;;;;26.23;13.10;;;;;;;2.35;67.97;99450.94;1672223;85;26456;-74
2021/04/05 04:46:53;;;;;;;21.60;12.18;;;;;;;2.37;67.97;99441.52;1624569;85;26179;-75
2021/04/05 04:49:20;;;;;;;18.95;11.48;;;;;;;2.40;67.92;99441.17;1647474;86;27533;-73
2021/04/05 04:51:47;;;;;;;23.85;11.28;;;;;;;2.42;67.93;99442.67;1646533;85;26541;-74
2021/04/05 04:54:15;;;;;;;19.98;10.50;;;;;;;2.45;67.95;99439.71;1646589;85;25862;-73
2021/04/05 04:56:42;;;;;;;23.22;12.82;;;;;;;2.47;67.92;99444.34;1603504;85;26265;-74
2021/04/05 04:59:12;;;;;;;22.25;11.25;;;;;;;2.53;67.88;99442.84;1651089;85;25875;-74
2021/04/05 05:01:43;;;;;;;22.65;11.22;;;;;;;2.55;67.81;99441.70;1654160;85;27347;-74
2021/04/05 05:04:29;;;;;;;23.02;11.93;;;;;;;2.58;67.78;99435.27;1672536;85;26440;-74
2021/04/05 05:07:03;;;;;;;22.95;11.68;;;;;;;2.63;67.79;99434.28;1635627;85;25837;-75
2021/04/05 05:09:34;;;;;;;24.55;11.78;;;;;;;2.65;67.71;99424.38;1667810;85;26358;-75
2021/04/05 05:12:01;;;;;;;20.82;12.78;;;;;;;2.69;67.49;99430.98;1647440;85;25947;-75
2021/04/05 05:14:29;;;;;;;21.25;11.57;;;;;;;2.71;67.51;99416.61;1671478;85;27519;-75
2021/04/05 05:16:59;;;;;;;22.25;11.48;;;;;;;2.75;67.44;99419.73;1608677;85;25916;-73
2021/04/05 05:19:37;;;;;;;20.52;11.63;;;;;;;2.78;67.36;99416.25;1666388;84;25880;-76
2021/04/05 05:22:09;;;;;;;22.07;13.07;;;;;;;2.81;67.34;99413.29;1625000;85;25896;-74
2021/04/05 05:24:39;;;;;;;20.50;11.38;;;;;;;2.85;67.21;99402.70;1671349;85;25859;-74
2021/04/05 05:27:09;;;;;;;21.93;11.43;;;;;;;2.91;67.13;99400.71;1609560;85;28940;-74
2021/04/05 05:29:44;;;;;;;20.80;9.90;;;;;;;2.98;66.99;99402.19;1630805;85;25988;-75
2021/04/05 05:32:11;;;;;;;27.67;11.85;;;;;;;3.03;66.73;99398.07;1649952;85;25947;-75
2021/04/05 05:34:39;;;;;;;26.70;12.80;;;;;;;3.08;66.84;99382.98;1671574;85;25855;-75
2021/04/05 05:37:07;;;;;;;28.07;13.80;;;;;;;3.16;66.61;99389.61;1616699;85;25780;-75
2021/04/05 05:39:34;;;;;;;22.37;12.05;;;;;;;3.25;66.58;99382.48;1668518;83;27543;-75
2021/04/05 05:42:47;;;;;;;24.80;12.40;;;;;;;3.32;66.44;99379.45;1646545;85;26541;-75
2021/04/05 05:45:19;;;;;;;23.85;13.00;;;;;;;3.40;66.43;99378.93;1665358;85;25834;-76
2021/04/05 05:48:10;;;;;;;26.40;13.85;;;;;;;3.51;66.21;99365.33;1643189;85;26299;-75
2021/04/05 05:50:55;;;;;;;25.62;13.78;;;;;;;3.62;66.18;99356.18;1621072;85;25739;-74
2021/04/05 05:54:01;;;;;;;27.75;14.33;;;;;;;3.72;66.06;99356.81;1640034;85;27294;-74
2021/04/05 05:56:44;;;;;;;24.20;12.90;;;;;;;3.86;66.09;99355.58;1682775;84;26152;-74
2021/04/05 05:59:53;;;;;;;25.20;13.35;;;;;;;3.99;65.90;99354.17;1658131;83;26429;-73
2021/04/05 06:02:42;;;;;;;19.62;10.93;;;;;;;4.11;65.63;99346.95;1672257;83;26606;-73
2021/04/05 06:05:43;;;;;;;23.87;13.32;;;;;;;4.24;65.63;99347.20;1690940;83;25906;-74
2021/04/05 06:08:28;;;;;;;20.02;13.20;;;;;;;4.37;65.28;99338.16;1670598;83;28150;-74
2021/04/05 06:11:18;;;;;;;25.02;12.35;;;;;;;4.47;64.86;99341.91;1652417;83;25785;-73
2021/04/05 06:14:02;;;;;;;26.70;13.70;;;;;;;4.56;64.84;99331.53;1689507;83;26215;-73
2021/04/05 06:16:52;;;;;;;22.77;12.78;;;;;;;4.66;64.74;99324.97;1672488;84;25979;-75
2021/04/05 06:19:46;;;;;;;25.43;12.63;;;;;;;4.75;64.81;99327.05;1601819;84;26661;-74
2021/04/05 06:22:47;;;;;;;23.27;12.95;;;;;;;4.79;63.84;99320.89;1676404;83;28787;-75
2021/04/05 06:26:01;;;;;;;23.65;12.37;;;;;;;4.86;63.99;99314.67;1632200;84;26110;-73
2021/04/05 06:28:43;;;;;;;20.95;12.33;;;;;;;4.95;63.06;99319.39;1678968;84;25911;-73
2021/04/05 06:31:44;;;;;;;31.65;14.63;;;;;;;5.03;63.41;99311.34;1681340;84;26230;-74
2021/04/05 06:34:25;;;;;;;25.05;14.87;;;;;;;5.13;63.20;99306.59;1678782;84;25787;-74
2021/04/05 06:37:23;;;;;;;26.27;13.48;;;;;;;5.22;63.50;99289.55;1633644;84;28446;-74
2021/04/05 06:39:55;;;;;;;17.65;11.35;;;;;;;5.32;62.85;99288.78;1662074;84;25930;-73
2021/04/05 06:42:44;;;;;;;17.80;10.75;;;;;;;5.42;63.10;99280.84;1668635;83;25855;-74
2021/04/05 06:45:49;;;;;;;19.75;11.63;;;;;;;5.49;61.07;99273.76;1667292;83;26102;-75
2021/04/05 06:48:44;;;;;;;21.80;11.75;;;;;;;5.54;61.42;99274.53;1666024;85;26179;-75
2021/04/05 06:51:20;;;;;;;20.10;11.57;;;;;;;5.63;62.14;99258.81;1645682;85;27337;-75
2021/04/05 06:54:18;;;;;;;18.95;11.83;;;;;;;5.76;62.26;99260.78;1667051;85;26187;-74
2021/04/05 06:57:06;;;;;;;24.02;13.80;;;;;;;5.88;61.13;99243.38;1679976;85;25746;-75
2021/04/05 06:59:59;;;;;;;20.48;12.20;;;;;;;5.98;61.30;99230.59;1645181;85;25925;-75
2021/04/05 07:02:59;;;;;;;25.05;12.23;;;;;;;6.09;61.23;99232.20;1646213;85;25775;-75
2021/04/05 07:06:00;;;;;;;20.77;10.75;;;;;;;6.20;60.93;99238.34;1672941;85;28459;-74
2021/04/05 07:08:45;;;;;;;16.37;9.83;;;;;;;6.32;60.70;99225.36;1651118;85;25849;-74
2021/04/05 07:11:24;;;;;;;20.15;11.90;;;;;;;6.48;58.98;99230.91;1639655;85;25789;-74
2021/04/05 07:14:23;;;;;;;18.30;11.20;;;;;;;6.55;59.46;99227.77;1647728;83;25867;-75
2021/04/05 07:17:14;;;;;;;16.48;10.88;;;;;;;6.65;59.44;99219.75;1690319;83;25795;-74
2021/04/05 07:19:53;;;;;;;22.35;10.70;;;;;;;6.76;58.26;99201.91;1651512;85;29231;-76
2021/04/05 07:22:41;;;;;;;18.62;10.70;;;;;;;6.89;58.62;99201.98;1671766;83;26130;-74
2021/04/05 07:25:31;;;;;;;19.55;11.65;;;;;;;7.03;59.65;99193.03;1647982;85;26379;-76
2021/04/05 07:28:42;;;;;;;21.65;11.10;;;;;;;7.17;57.66;99185.93;1673404;85;25895;-75
2021/04/05 07:31:34;;;;;;;19.77;9.08;;;;;;;7.32;56.51;99173.78;1649777;85;25825;-76
2021/04/05 07:34:42;;;;;;;18.82;9.88;;;;;;;7.48;56.32;99162.78;1646380;85;27817;-75
2021/04/05 07:37:17;;;;;;;16.90;9.70;;;;;;;7.61;56.95;99154.28;1646599;85;25938;-74
2021/04/05 07:40:06;;;;;;;15.53;9.38;;;;;;;7.80;56.35;99146.81;1668518;85;25912;-74
2021/04/05 07:43:04;;;;;;;18.73;8.88;;;;;;;7.92;55.19;99149.70;1646623;85;26275;-74
2021/04/05 07:45:57;;;;;;;15.55;9.13;;;;;;;7.95;54.59;99143.98;1606691;88;25918;-75
2021/04/05 07:48:38;;;;;;;12.40;7.87;;;;;;;7.96;54.59;99147.44;1660753;85;27036;-76
2021/04/05 07:51:23;;;;;;;13.53;8.13;;;;;;;7.98;52.75;99144.05;1711570;82;26054;-75
2021/04/05 07:53:57;;;;;;;15.43;7.90;;;;;;;8.02;53.41;99136.77;1695850;82;26217;-74
2021/04/05 07:56:51;;;;;;;14.70;8.05;;;;;;;8.06;52.33;99126.00;1656241;83;26545;-73
2021/04/05 07:59:58;;;;;;;14.65;7.62;;;;;;;8.06;53.09;99126.00;1695318;83;26087;-75
2021/04/05 08:03:07;;;;;;;13.53;8.28;;;;;;;8.05;53.32;99111.05;1676415;84;28460;-75
2021/04/05 08:05:57;;;;;;;15.72;8.50;;;;;;;8.04;52.86;99111.27;1687456;83;26163;-73
2021/04/05 08:08:39;;;;;;;13.70;7.75;;;;;;;8.06;53.05;99111.33;1670707;84;25809;-73
2021/04/05 08:11:48;;;;;;;16.37;9.23;;;;;;;8.14;53.62;99112.98;1679340;84;25843;-73
2021/04/05 08:14:27;;;;;;;15.83;7.37;;;;;;;8.23;52.08;99103.20;1646751;85;25828;-76
2021/04/05 08:17:09;;;;;;;14.13;7.87;;;;;;;8.26;53.40;99090.00;1646839;85;27549;-73
2021/04/05 08:19:52;;;;;;;12.55;7.37;;;;;;;8.36;53.03;99089.88;1645734;85;26142;-73
2021/04/05 08:22:53;;;;;;;11.63;8.20;;;;;;;8.47;53.25;99075.89;1678588;84;26446;-74
2021/04/05 08:28:19;;;;;;;12.68;7.58;;;;;;;8.79;53.06;99048.77;1671466;85;32532;-75
2021/04/05 08:31:04;;;;;;;12.78;7.85;;;;;;;8.94;51.60;99039.16;1675387;84;27334;-74
2021/04/05 08:34:11;;;;;;;18.65;7.97;;;;;;;9.05;51.95;99033.94;1689603;84;25466;-77
2021/04/05 08:36:50;;;;;;;15.15;7.67;;;;;;;9.19;53.27;99018.15;1690647;84;25924;-75
2021/04/05 08:39:44;;;;;;;13.43;7.50;;;;;;;9.40;52.51;99008.12;1656667;84;26513;-75
2021/04/05 08:42:45;;;;;;;13.05;7.25;;;;;;;9.48;51.42;99005.16;1652459;84;26394;-76
2021/04/05 08:45:22;;;;;;;11.70;7.00;;;;;;;9.54;52.39;98993.63;1673786;84;27611;-75
2021/04/05 08:47:56;;;;;;;14.15;7.58;;;;;;;9.56;51.85;98986.20;1677149;84;25921;-76
2021/04/05 08:50:28;;;;;;;13.68;7.20;;;;;;;9.58;52.92;98980.91;1686426;83;25831;-73
2021/04/05 08:52:58;;;;;;;18.12;8.88;;;;;;;9.63;51.97;98969.05;1690340;84;26492;-75
2021/04/05 08:55:32;;;;;;;10.13;6.47;;;;;;;9.62;51.66;98970.11;1680123;84;25833;-75
2021/04/05 08:58:28;;;;;;;13.85;7.80;;;;;;;9.61;51.02;98969.80;1671543;84;28409;-73
2021/04/05 09:01:01;;;;;;;15.28;7.28;;;;;;;9.56;50.63;98976.84;1673233;84;25905;-75
2021/04/05 09:03:34;;;;;;;14.83;7.28;;;;;;;9.56;51.73;98977.64;1623008;84;26237;-76
2021/04/05 09:06:07;;;;;;;13.50;6.75;;;;;;;9.63;51.00;98978.92;1627251;86;25843;-74
2021/04/05 09:08:35;;;;;;;15.53;7.62;;;;;;;9.69;50.10;98969.50;1642429;86;26099;-75
2021/04/05 09:11:05;;;;;;;17.30;6.65;;;;;;;9.77;51.33;98970.55;1614094;87;28552;-75
2021/04/05 09:13:53;;;;;;;8.33;6.50;;;;;;;9.92;51.34;98964.33;1633443;86;25838;-75
2021/04/05 09:16:44;;;;;;;13.10;6.60;;;;;;;10.03;49.42;98958.24;1652604;86;25813;-76
2021/04/05 09:19:39;;;;;;;;;;;;;;;10.14;51.37;98946.00;1619722;86;26143;-75
2021/04/05 09:22:15;;;;;;;11.30;6.25;;;;;;;10.24;51.12;98938.30;1584187;86;26594;-77
2021/04/05 09:24:58;;;;;;;10.93;5.92;;;;;;;10.25;49.53;98935.07;1652840;86;28459;-75
2021/04/05 09:27:51;;;;;;;16.30;7.45;;;;;;;10.27;49.55;98927.63;1634547;86;25937;-74
2021/04/05 09:30:49;;;;;;;9.88;6.28;;;;;;;10.26;50.79;98919.33;1657023;86;25967;-77
2021/04/05 09:33:39;;;;;;;12.07;6.25;;;;;;;10.25;50.93;98909.65;1633894;86;26068;-78
2021/04/05 09:36:44;;;;;;;10.15;5.95;;;;;;;10.25;50.69;98901.11;1636257;86;26492;-75
2021/04/05 09:39:51;;;;;;;13.85;6.83;;;;;;;10.30;50.87;98901.77;1609537;87;27553;-75
2021/04/05 09:43:09;;;;;;;13.50;6.83;;;;;;;10.32;49.62;98907.20;1639606;86;26061;-73
2021/04/05 09:46:17;;;;;;;10.23;5.55;;;;;;;10.34;49.67;98911.80;1626806;86;26022;-72
2021/04/05 09:49:31;;;;;;;13.55;7.00;;;;;;;10.38;50.32;98902.80;1636070;86;26373;-75
2021/04/05 09:52:10;;;;;;;12.98;6.65;;;;;;;10.45;49.62;98895.50;1631077;86;25908;-75
2021/04/05 09:54:51;;;;;;;10.25;5.70;;;;;;;10.50;49.46;98888.95;1655176;86;27536;-74
2021/04/05 09:57:45;;;;;;;13.65;6.72;;;;;;;10.54;49.83;98886.91;1635583;86;25952;-74
2021/04/05 10:00:20;;;;;;;13.68;7.08;;;;;;;10.55;47.83;98885.88;1634942;86;26170;-73
2021/04/05 10:02:56;;;;;;;9.15;5.42;;;;;;;10.52;48.57;98886.31;1612285;86;25557;-76
2021/04/05 10:05:26;;;;;;;8.80;5.30;;;;;;;10.55;49.17;98885.05;1633463;86;27000;-76
2021/04/05 10:07:56;;;;;;;11.63;6.30;;;;;;;10.64;49.40;98872.98;1657005;84;27545;-76
2021/04/05 10:10:26;;;;;;;14.87;6.65;;;;;;;10.70;49.04;98879.58;1645432;84;26049;-76
2021/04/05 10:12:57;;;;;;;9.20;5.70;;;;;;;10.75;47.14;98877.55;1642712;85;26618;-75
2021/04/05 10:15:29;;;;;;;15.32;6.60;;;;;;;10.76;49.02;98870.61;1629749;86;25847;-74
2021/04/05 10:18:00;;;;;;;13.50;6.37;;;;;;;10.83;49.52;98867.84;1635902;87;25769;-76
2021/04/05 10:20:30;;;;;;;12.20;5.87;;;;;;;10.91;49.48;98865.33;1622118;86;27566;-74
2021/04/05 10:23:12;;;;;;;13.58;6.78;;;;;;;10.95;49.54;98849.91;1584098;87;26173;-74
2021/04/05 10:25:40;;;;;;;13.32;6.80;;;;;;;10.98;49.17;98850.80;1628270;87;26294;-75
2021/04/05 10:28:13;;;;;;;14.35;6.20;;;;;;;10.98;49.61;98843.28;1624041;86;25792;-74
2021/04/05 10:30:41;;;;;;;11.85;5.70;;;;;;;10.98;49.15;98839.26;1621018;86;26541;-74
2021/04/05 10:33:15;;;;;;;11.68;5.75;;;;;;;10.96;49.43;98835.48;1601895;86;27614;-73
2021/04/05 10:35:49;;;;;;;11.18;6.05;;;;;;;11.00;49.63;98835.83;1624079;86;25783;-73
2021/04/05 10:38:19;;;;;;;13.22;6.33;;;;;;;11.06;50.16;98831.69;1624787;86;25915;-75
2021/04/05 10:40:50;;;;;;;12.43;5.70;;;;;;;11.11;49.93;98817.59;1624706;86;25927;-75
2021/04/05 10:43:25;;;;;;;11.63;5.67;;;;;;;11.20;50.06;98814.35;1606474;86;25634;-74
2021/04/05 10:46:06;;;;;;;11.78;6.65;;;;;;;11.26;48.76;98809.91;1623726;86;27555;-75
2021/04/05 10:48:55;;;;;;;11.18;6.33;;;;;;;11.29;48.48;98800.07;1647939;86;26484;-74
2021/04/05 10:51:27;;;;;;;15.58;6.45;;;;;;;11.33;49.02;98796.66;1603575;85;25847;-73
2021/04/05 10:54:02;;;;;;;13.65;6.80;;;;;;;11.35;48.24;98787.06;1605504;86;26008;-75
2021/04/05 10:56:36;;;;;;;8.03;5.00;;;;;;;11.33;48.14;98793.19;1647368;86;25374;-74
2021/04/05 10:59:11;;;;;;;14.80;6.15;;;;;;;11.32;47.67;98777.62;1623904;86;29020;-74
2021/04/05 11:01:47;;;;;;;15.30;7.60;;;;;;;11.34;47.49;98766.14;1624576;86;25915;-74
2021/04/05 11:04:18;;;;;;;16.70;6.97;;;;;;;11.38;47.83;98775.33;1621972;86;25884;-75
2021/04/05 11:06:48;;;;;;;12.00;6.15;;;;;;;11.42;47.10;98764.42;1647651;86;25641;-74
2021/04/05 11:09:18;;;;;;;13.88;6.42;;;;;;;11.45;48.14;98766.64;1622861;86;26174;-74
2021/04/05 11:11:52;;;;;;;12.25;5.90;;;;;;;11.47;48.56;98759.17;1624532;86;27280;-74
2021/04/05 11:14:21;;;;;;;14.70;6.60;;;;;;;11.49;48.14;98755.73;1624729;86;26150;-74
2021/04/05 11:16:56;;;;;;;13.22;5.75;;;;;;;11.42;47.37;98759.06;1645049;85;26347;-75
2021/04/05 11:19:31;;;;;;;15.98;6.62;;;;;;;11.38;46.85;98762.45;1625710;86;25881;-74
2021/04/05 11:22:00;;;;;;;22.60;9.05;;;;;;;11.34;47.73;98750.05;1595317;86;26240;-75
2021/04/05 11:24:33;;;;;;;16.27;6.97;;;;;;;11.33;47.25;98754.32;1603213;86;27557;-74
2021/04/05 11:27:06;;;;;;;12.65;7.25;;;;;;;11.33;47.45;98752.43;1651377;86;26398;-73
2021/04/05 11:29:40;;;;;;;14.58;5.87;;;;;;;11.35;47.00;98749.02;1623884;86;26461;-74
2021/04/05 11:32:15;;;;;;;11.70;6.62;;;;;;;11.36;46.31;98748.47;1624152;86;26537;-75
2021/04/05 11:34:44;;;;;;;14.70;6.53;;;;;;;11.36;46.57;98741.77;1623399;86;25842;-74
2021/04/05 11:37:14;;;;;;;13.85;5.92;;;;;;;11.37;46.93;98736.71;1647957;86;27559;-75
2021/04/05 11:39:47;;;;;;;10.07;5.57;;;;;;;11.37;46.34;98731.34;1622738;86;26163;-75
2021/04/05 11:42:16;;;;;;;12.55;5.78;;;;;;;11.35;47.16;98719.53;1624186;86;26478;-74
2021/04/05 11:44:53;;;;;;;16.85;6.33;;;;;;;11.37;47.50;98717.42;1602659;86;26465;-73
2021/04/05 11:47:23;;;;;;;16.23;7.70;;;;;;;11.40;46.98;98705.39;1623292;86;25800;-74
2021/04/05 11:49:50;;;;;;;19.17;8.90;;;;;;;11.42;46.81;98713.48;1620146;86;27337;-73
2021/04/05 11:52:47;;;;;;;18.80;6.95;;;;;;;11.43;47.15;98711.11;1601948;86;26650;-74
2021/04/05 11:55:28;;;;;;;19.00;8.43;;;;;;;11.45;45.90;98705.50;1652328;86;25766;-74
2021/04/05 11:58:15;;;;;;;11.05;5.62;;;;;;;11.43;44.98;98696.88;1663077;85;25736;-74
2021/04/05 12:00:53;;;;;;;14.30;5.50;;;;;;;11.46;46.35;98693.19;1614062;87;26166;-73
2021/04/05 12:03:35;;;;;;;10.13;5.67;;;;;;;11.49;45.39;98688.70;1613233;87;27629;-73
2021/04/05 12:06:20;;;;;;;14.75;5.58;;;;;;;11.56;46.32;98683.20;1640714;86;26161;-74
2021/04/05 12:08:52;;;;;;;18.98;6.58;;;;;;;11.63;46.67;98677.97;1615032;87;25864;-74
2021/04/05 12:11:25;;;;;;;15.90;5.83;;;;;;;11.71;46.55;98673.31;1613033;86;25875;-75
2021/04/05 12:14:08;;;;;;;17.15;5.58;;;;;;;11.79;46.82;98671.57;1593971;86;25909;-74
2021/04/05 12:16:50;;;;;;;13.83;5.67;;;;;;;11.93;45.27;98665.66;1820171;77;25744;-73
2021/04/05 12:19:29;;;;;;;16.00;6.72;;;;;;;11.91;46.38;98667.77;1750664;80;25842;-75
2021/04/05 12:21:57;;;;;;;14.10;5.12;;;;;;;11.94;45.15;98657.91;1772590;78;27327;-74
2021/04/05 12:24:32;;;;;;;18.98;5.55;;;;;;;11.94;45.24;98655.22;1790469;79;25634;-74